Time;durP1;ratioP1;P1;durP2;ratioP2;P2;SDS_P1;SDS_P2;PMS_P1;PMS_P2;Temp;Humidity;BMP_temperature;BMP_pressure;BME280_temperature;BME280_humidity;BME280_pressure;Samples;Min_cycle;Max_cycle;Signal;HPM_P1;HPM_P2
2021/12/09 00:01:24;;;;;;;1.20;1.10;;;19.60;38.70;;;;;;5003917;28;20455;-59
2021/12/09 00:03:57;;;;;;;1.20;1.10;;;19.60;38.60;;;;;;4997541;28;21043;-58
2021/12/09 00:06:27;;;;;;;1.43;1.30;;;19.60;38.70;;;;;;4999004;28;21016;-58
2021/12/09 00:08:54;;;;;;;1.40;1.30;;;19.60;38.60;;;;;;5001754;28;20478;-58
2021/12/09 00:11:20;;;;;;;1.33;1.23;;;19.60;38.70;;;;;;5001835;28;20446;-58
2021/12/09 00:13:46;;;;;;;1.30;1.20;;;19.60;38.70;;;;;;5000149;28;20413;-58
2021/12/09 00:16:12;;;;;;;1.30;1.20;;;19.60;38.80;;;;;;5000720;28;20231;-58
2021/12/09 00:18:38;;;;;;;1.40;1.17;;;19.60;38.80;;;;;;5002637;28;20224;-58
2021/12/09 00:21:03;;;;;;;1.27;1.17;;;19.60;38.80;;;;;;5003747;28;20697;-58
2021/12/09 00:23:29;;;;;;;2.27;1.40;;;19.60;38.70;;;;;;4999296;28;20259;-58
2021/12/09 00:25:55;;;;;;;1.40;1.30;;;19.60;38.70;;;;;;5002576;28;20232;-58
2021/12/09 00:28:20;;;;;;;1.20;1.10;;;19.60;38.80;;;;;;5000700;28;20225;-58
2021/12/09 00:30:46;;;;;;;1.40;1.30;;;19.60;38.80;;;;;;4998340;28;20689;-58
2021/12/09 00:33:14;;;;;;;2.23;1.07;;;19.60;38.80;;;;;;5001302;28;20685;-58
2021/12/09 00:35:55;;;;;;;1.20;1.10;;;19.60;38.70;;;;;;5003904;28;20220;-58
2021/12/09 00:38:34;;;;;;;1.50;1.20;;;19.60;38.90;;;;;;4999438;28;20939;-58
2021/12/09 00:41:06;;;;;;;1.63;1.40;;;19.60;38.90;;;;;;5002786;28;20581;-58
2021/12/09 00:43:31;;;;;;;1.27;1.17;;;19.60;38.80;;;;;;5001698;28;20454;-58
2021/12/09 00:45:57;;;;;;;1.10;1.00;;;19.60;39.60;;;;;;5000465;28;20482;-58
2021/12/09 00:48:24;;;;;;;1.30;1.20;;;19.60;39.60;;;;;;5000214;28;20227;-57
2021/12/09 00:50:52;;;;;;;1.10;1.00;;;19.60;38.80;;;;;;5004155;28;20437;-57
2021/12/09 00:53:17;;;;;;;1.20;1.10;;;19.60;38.90;;;;;;5000001;28;20506;-58
2021/12/09 00:55:43;;;;;;;1.40;1.30;;;19.60;38.80;;;;;;5005947;28;20470;-58
2021/12/09 00:58:09;;;;;;;1.20;1.10;;;19.60;38.90;;;;;;5000678;28;20938;-58
2021/12/09 01:00:34;;;;;;;2.20;1.27;;;19.60;38.80;;;;;;4997823;28;20729;-58
2021/12/09 01:03:00;;;;;;;1.37;1.27;;;19.60;38.80;;;;;;5000644;28;20252;-58
2021/12/09 01:05:27;;;;;;;1.40;1.30;;;19.60;38.90;;;;;;5000998;28;20212;-58
2021/12/09 01:07:53;;;;;;;1.20;1.10;;;19.60;38.90;;;;;;5000614;28;20597;-57
2021/12/09 01:10:19;;;;;;;1.40;1.30;;;19.60;38.90;;;;;;5005063;28;20781;-57
2021/12/09 01:12:45;;;;;;;1.50;1.00;;;19.60;38.90;;;;;;5003730;28;21048;-58
2021/12/09 01:15:13;;;;;;;1.23;1.13;;;19.60;38.90;;;;;;4998652;28;20436;-58
2021/12/09 01:17:39;;;;;;;1.20;1.10;;;19.60;38.90;;;;;;5000832;28;20223;-58
2021/12/09 01:20:07;;;;;;;2.43;1.57;;;19.60;38.90;;;;;;5002509;28;20987;-57
2021/12/09 01:22:40;;;;;;;1.30;1.20;;;19.60;38.90;;;;;;5002692;28;20628;-58
2021/12/09 01:25:07;;;;;;;2.60;1.50;;;19.60;38.90;;;;;;4998873;28;20442;-57
2021/12/09 01:27:36;;;;;;;1.23;1.13;;;19.60;38.90;;;;;;4999943;28;20428;-58
2021/12/09 01:30:10;;;;;;;1.83;1.57;;;19.60;38.90;;;;;;4998612;28;20454;-58
2021/12/09 01:32:36;;;;;;;1.33;1.23;;;19.60;38.90;;;;;;5000577;28;20478;-58
2021/12/09 01:35:04;;;;;;;1.10;1.00;;;19.60;38.90;;;;;;4998728;28;20443;-58
2021/12/09 01:37:30;;;;;;;1.73;1.10;;;19.60;38.90;;;;;;4998393;28;20503;-58
2021/12/09 01:39:56;;;;;;;1.20;1.10;;;19.60;38.90;;;;;;5001392;28;20481;-58
2021/12/09 01:42:21;;;;;;;1.20;1.10;;;19.60;38.90;;;;;;5002767;28;20467;-57
2021/12/09 01:44:47;;;;;;;1.50;1.07;;;19.60;38.90;;;;;;5001951;28;21291;-58
2021/12/09 01:47:13;;;;;;;1.10;1.00;;;19.60;38.90;;;;;;5001886;28;20721;-57
2021/12/09 01:49:38;;;;;;;1.20;1.10;;;19.60;38.90;;;;;;4995943;28;20666;-58
2021/12/09 01:52:05;;;;;;;1.20;1.10;;;19.60;38.90;;;;;;4996984;28;20287;-58
2021/12/09 01:54:31;;;;;;;1.40;1.30;;;19.60;38.90;;;;;;5002672;28;20216;-58
2021/12/09 01:56:59;;;;;;;2.77;1.30;;;19.60;38.90;;;;;;5003277;28;20457;-57
2021/12/09 01:59:25;;;;;;;1.40;1.30;;;19.60;38.90;;;;;;4999914;28;20421;-58
2021/12/09 02:01:51;;;;;;;2.73;1.43;;;19.60;38.90;;;;;;4999802;28;20496;-58
2021/12/09 02:04:16;;;;;;;1.27;1.17;;;19.60;38.90;;;;;;4998804;28;20448;-58
2021/12/09 02:06:44;;;;;;;1.10;1.00;;;19.60;38.90;;;;;;4998201;28;20258;-57
2021/12/09 02:09:12;;;;;;;1.37;1.20;;;19.60;38.90;;;;;;4997314;28;20964;-58
2021/12/09 02:11:39;;;;;;;1.40;1.30;;;19.60;38.90;;;;;;5001924;28;20851;-57
2021/12/09 02:14:05;;;;;;;1.23;1.13;;;19.60;38.90;;;;;;4998813;28;20446;-57
2021/12/09 02:16:33;;;;;;;1.30;1.20;;;19.60;38.90;;;;;;5001036;28;20433;-58
2021/12/09 02:18:58;;;;;;;5.00;1.20;;;19.60;38.90;;;;;;4996465;28;20442;-57
2021/12/09 02:21:30;;;;;;;1.30;1.20;;;19.60;38.90;;;;;;4999835;28;20992;-58
2021/12/09 02:24:08;;;;;;;1.53;1.10;;;19.60;38.90;;;;;;5001024;28;20273;-58
2021/12/09 02:26:39;;;;;;;1.10;1.00;;;19.60;38.90;;;;;;5002463;28;20463;-57
2021/12/09 02:29:07;;;;;;;1.20;1.10;;;19.60;38.90;;;;;;4997139;28;20521;-57
2021/12/09 02:31:34;;;;;;;1.47;1.30;;;19.60;38.90;;;;;;5000317;28;20531;-57
2021/12/09 02:34:01;;;;;;;1.30;1.20;;;19.60;38.90;;;;;;5001795;28;20449;-57
2021/12/09 02:36:30;;;;;;;1.20;1.10;;;19.60;38.90;;;;;;4995997;28;20901;-57
2021/12/09 02:38:56;;;;;;;1.10;1.00;;;19.60;38.90;;;;;;5000002;28;20450;-57
2021/12/09 02:41:25;;;;;;;1.53;1.10;;;19.60;38.90;;;;;;5000018;28;20994;-57
2021/12/09 02:44:02;;;;;;;1.10;1.00;;;19.60;38.90;;;;;;4998940;28;20501;-58
2021/12/09 02:46:29;;;;;;;1.30;1.20;;;19.60;38.90;;;;;;5001486;28;21078;-57
2021/12/09 02:48:55;;;;;;;1.50;1.30;;;19.60;38.90;;;;;;5002457;28;20852;-58
2021/12/09 02:51:21;;;;;;;1.93;1.10;;;19.60;38.90;;;;;;4998516;28;20420;-58
2021/12/09 02:53:47;;;;;;;1.07;1.00;;;19.60;38.90;;;;;;4997949;28;20306;-57
2021/12/09 02:56:13;;;;;;;1.30;1.20;;;19.60;38.90;;;;;;5003804;28;20942;-57
2021/12/09 02:58:39;;;;;;;2.10;1.17;;;19.60;38.90;;;;;;5002102;28;20225;-58
2021/12/09 03:01:15;;;;;;;1.97;1.20;;;19.60;38.90;;;;;;4998627;28;20537;-57
2021/12/09 03:03:49;;;;;;;1.23;1.13;;;19.60;38.90;;;;;;4997724;28;20483;-57
2021/12/09 03:06:16;;;;;;;1.40;1.30;;;19.60;38.90;;;;;;4999212;28;20457;-58
2021/12/09 03:08:43;;;;;;;1.30;1.20;;;19.60;38.90;;;;;;4997886;28;20442;-57
2021/12/09 03:11:14;;;;;;;1.67;1.10;;;19.60;38.90;;;;;;4997250;28;20443;-57
2021/12/09 03:13:41;;;;;;;1.30;0.90;;;19.60;38.90;;;;;;4997097;28;20444;-60
2021/12/09 03:16:07;;;;;;;1.30;1.20;;;19.60;38.90;;;;;;5001576;28;20500;-59
2021/12/09 03:18:45;;;;;;;2.97;1.00;;;19.60;38.90;;;;;;5002935;28;20439;-59
2021/12/09 03:21:29;;;;;;;1.20;1.10;;;19.60;38.90;;;;;;5001193;28;20586;-59
2021/12/09 03:23:57;;;;;;;1.13;1.03;;;19.60;38.90;;;;;;4998921;28;20425;-58
2021/12/09 03:26:29;;;;;;;1.27;1.17;;;19.60;38.90;;;;;;5005390;28;20448;-59
2021/12/09 03:29:00;;;;;;;2.93;1.23;;;19.60;38.80;;;;;;5002081;28;20545;-58
2021/12/09 03:31:27;;;;;;;1.00;0.90;;;19.60;38.80;;;;;;5006227;28;20434;-58
2021/12/09 03:33:53;;;;;;;3.60;1.03;;;19.60;38.70;;;;;;5002556;28;20457;-58
2021/12/09 03:36:19;;;;;;;1.10;1.00;;;19.60;38.70;;;;;;5002881;28;20548;-58
2021/12/09 03:38:45;;;;;;;1.07;0.97;;;19.60;38.60;;;;;;5001332;28;20428;-59
2021/12/09 03:41:11;;;;;;;1.00;0.90;;;19.60;38.60;;;;;;5006832;28;20371;-58
2021/12/09 03:43:37;;;;;;;1.10;1.00;;;19.60;38.60;;;;;;5004304;28;20495;-58
2021/12/09 03:46:04;;;;;;;1.13;1.03;;;19.50;38.40;;;;;;5002768;28;20224;-58
2021/12/09 03:48:30;;;;;;;2.03;1.93;;;19.50;38.30;;;;;;5001251;28;20450;-58
2021/12/09 03:50:57;;;;;;;1.00;0.90;;;19.60;39.30;;;;;;5000831;28;20466;-58
2021/12/09 03:53:23;;;;;;;1.30;1.20;;;19.50;38.30;;;;;;5000236;28;20477;-58
2021/12/09 03:55:49;;;;;;;1.10;1.00;;;19.50;38.30;;;;;;5001720;28;20454;-58
2021/12/09 03:58:15;;;;;;;1.10;1.00;;;19.50;38.30;;;;;;5002476;28;20425;-59
2021/12/09 04:00:42;;;;;;;1.20;1.10;;;19.50;38.40;;;;;;4999502;28;20466;-58
2021/12/09 04:03:08;;;;;;;1.27;1.17;;;19.50;38.40;;;;;;5002831;28;20521;-58
2021/12/09 04:05:34;;;;;;;1.10;1.00;;;19.50;38.30;;;;;;5003619;28;20503;-58
2021/12/09 04:07:59;;;;;;;1.40;1.10;;;19.50;38.30;;;;;;5001635;28;20457;-58
2021/12/09 04:10:25;;;;;;;1.30;1.20;;;19.50;38.40;;;;;;5002362;28;20223;-58
2021/12/09 04:12:51;;;;;;;1.10;1.00;;;19.50;38.30;;;;;;5002349;28;20223;-58
2021/12/09 04:15:17;;;;;;;0.83;0.83;;;19.50;38.30;;;;;;5001214;28;20216;-58
2021/12/09 04:17:43;;;;;;;1.00;0.90;;;19.50;38.30;;;;;;5000898;28;20789;-58
2021/12/09 04:20:09;;;;;;;1.20;1.10;;;19.50;38.30;;;;;;5004103;28;20263;-58
2021/12/09 04:22:35;;;;;;;1.27;1.00;;;19.50;38.20;;;;;;4999296;28;20229;-58
2021/12/09 04:25:02;;;;;;;1.20;1.07;;;19.50;38.20;;;;;;5003171;28;20435;-58
2021/12/09 04:27:28;;;;;;;1.27;1.17;;;19.50;38.30;;;;;;5000819;28;20238;-58
2021/12/09 04:29:54;;;;;;;1.20;1.10;;;19.50;38.30;;;;;;5003482;28;20417;-58
2021/12/09 04:32:20;;;;;;;1.10;1.00;;;19.50;38.20;;;;;;5001999;28;20670;-58
2021/12/09 04:34:46;;;;;;;1.23;1.07;;;19.50;38.30;;;;;;5005375;28;20449;-58
2021/12/09 04:37:13;;;;;;;1.17;1.07;;;19.50;38.30;;;;;;5000603;28;20446;-58
2021/12/09 04:39:39;;;;;;;0.93;0.90;;;19.50;38.20;;;;;;5005197;28;20227;-58
2021/12/09 04:42:06;;;;;;;1.47;1.10;;;19.50;38.20;;;;;;5003000;28;20473;-58
2021/12/09 04:44:32;;;;;;;1.13;1.03;;;19.50;38.20;;;;;;5002404;28;20424;-58
2021/12/09 04:47:00;;;;;;;1.00;0.90;;;19.40;38.10;;;;;;4999692;28;20452;-59
2021/12/09 04:49:26;;;;;;;1.20;1.10;;;19.50;38.30;;;;;;4995995;28;20815;-58
2021/12/09 04:51:52;;;;;;;1.10;1.00;;;19.50;38.20;;;;;;4997777;28;20424;-58
2021/12/09 04:54:18;;;;;;;1.07;0.97;;;19.50;38.30;;;;;;5002439;28;20800;-58
2021/12/09 04:56:43;;;;;;;1.30;1.00;;;19.50;38.20;;;;;;5003610;28;20220;-58
2021/12/09 04:59:09;;;;;;;1.27;0.90;;;19.40;38.20;;;;;;4997811;28;20690;-58
2021/12/09 05:01:35;;;;;;;1.10;1.00;;;19.50;38.20;;;;;;5004628;28;20244;-58
2021/12/09 05:04:02;;;;;;;1.10;1.00;;;19.50;39.00;;;;;;5001792;28;20314;-58
2021/12/09 05:06:29;;;;;;;1.30;1.20;;;19.50;38.20;;;;;;4997251;28;20533;-58
2021/12/09 05:08:56;;;;;;;1.20;1.10;;;19.50;38.20;;;;;;5002563;28;20450;-58
2021/12/09 05:13:54;;;;;;;0.97;0.90;;;19.50;38.20;;;;;;5003446;28;20449;-58
2021/12/09 05:16:20;;;;;;;1.33;1.03;;;19.50;38.10;;;;;;4998814;28;20473;-58
2021/12/09 05:18:46;;;;;;;1.10;1.00;;;19.50;38.10;;;;;;5001147;28;20806;-58
2021/12/09 05:21:12;;;;;;;1.10;1.00;;;19.50;38.10;;;;;;4999585;28;20706;-58
2021/12/09 05:23:39;;;;;;;1.10;1.00;;;19.50;38.10;;;;;;4998217;28;20275;-59
2021/12/09 05:26:06;;;;;;;1.33;1.20;;;19.50;38.10;;;;;;4998310;28;20442;-58
2021/12/09 05:28:36;;;;;;;1.70;1.40;;;19.50;38.10;;;;;;5003985;28;20446;-58
2021/12/09 05:33:50;;;;;;;1.13;1.03;;;19.50;38.10;;;;;;5000560;28;20469;-59
2021/12/09 05:36:16;;;;;;;1.20;1.10;;;19.50;38.10;;;;;;5003169;28;20909;-58
2021/12/09 05:38:42;;;;;;;1.33;0.90;;;19.50;38.00;;;;;;5003847;28;20448;-58
2021/12/09 05:41:08;;;;;;;1.17;1.07;;;19.60;38.10;;;;;;4997229;28;20486;-58
2021/12/09 05:43:36;;;;;;;1.27;1.17;;;19.60;38.10;;;;;;4999827;28;20220;-58
2021/12/09 05:46:01;;;;;;;1.03;0.93;;;19.60;38.10;;;;;;5002992;28;20533;-58
2021/12/09 05:48:27;;;;;;;2.07;1.40;;;19.60;38.10;;;;;;5002006;28;20556;-59
2021/12/09 05:50:53;;;;;;;1.20;1.00;;;19.60;38.00;;;;;;4999045;28;20354;-59
2021/12/09 05:53:18;;;;;;;1.10;1.00;;;19.60;38.10;;;;;;5002605;28;20661;-60
2021/12/09 05:55:44;;;;;;;1.47;1.37;;;19.60;38.00;;;;;;5000743;28;20500;-59
2021/12/09 05:58:14;;;;;;;1.40;1.10;;;19.60;38.00;;;;;;4997972;28;20224;-59
2021/12/09 06:00:40;;;;;;;1.20;1.10;;;19.60;38.00;;;;;;5001899;28;20263;-59
2021/12/09 06:03:06;;;;;;;1.43;1.33;;;19.60;38.10;;;;;;4999383;28;20544;-59
2021/12/09 06:05:32;;;;;;;1.30;1.20;;;19.60;38.10;;;;;;5001875;28;20977;-59
2021/12/09 06:07:58;;;;;;;2.20;1.67;;;19.60;38.10;;;;;;4999296;28;20511;-58
2021/12/09 06:10:24;;;;;;;1.20;1.10;;;19.60;38.10;;;;;;5000863;28;20850;-59
2021/12/09 06:12:49;;;;;;;1.40;1.03;;;19.60;38.00;;;;;;4997095;28;20549;-58
2021/12/09 06:15:15;;;;;;;1.10;1.00;;;19.70;38.10;;;;;;4999248;28;20791;-60
2021/12/09 06:17:41;;;;;;;1.20;1.10;;;19.60;38.10;;;;;;4999104;28;20271;-58
2021/12/09 06:20:07;;;;;;;1.10;1.00;;;19.70;38.10;;;;;;4997524;28;20239;-58
2021/12/09 06:22:33;;;;;;;2.40;1.30;;;19.70;38.20;;;;;;5004539;28;20306;-58
2021/12/09 06:24:59;;;;;;;1.30;1.20;;;19.70;38.10;;;;;;4995452;28;20548;-58
2021/12/09 06:27:24;;;;;;;1.23;1.13;;;19.70;38.10;;;;;;4999154;28;20243;-60
2021/12/09 06:29:50;;;;;;;1.50;1.00;;;19.70;38.10;;;;;;4997782;28;20302;-60
2021/12/09 06:32:16;;;;;;;1.60;0.90;;;19.70;38.10;;;;;;4998108;28;20283;-59
2021/12/09 06:34:42;;;;;;;1.20;1.10;;;19.70;38.10;;;;;;4997096;28;20248;-59
2021/12/09 06:37:07;;;;;;;1.30;1.00;;;19.70;38.10;;;;;;4999517;28;20617;-59
2021/12/09 06:39:33;;;;;;;1.07;0.97;;;19.70;38.10;;;;;;4998073;28;20231;-60
2021/12/09 06:41:59;;;;;;;2.17;1.47;;;19.70;38.10;;;;;;4996015;28;20322;-59
2021/12/09 06:44:25;;;;;;;2.10;1.10;;;19.70;37.90;;;;;;4998091;28;20619;-59
2021/12/09 06:46:51;;;;;;;1.17;1.07;;;19.80;37.80;;;;;;5004551;28;20224;-59
2021/12/09 06:49:16;;;;;;;1.60;1.20;;;19.80;37.80;;;;;;5000208;28;20224;-59
2021/12/09 06:51:42;;;;;;;1.40;1.17;;;19.80;37.90;;;;;;5002443;28;20260;-58
2021/12/09 06:54:08;;;;;;;1.10;1.00;;;19.80;37.90;;;;;;5005437;28;20212;-58
2021/12/09 06:56:35;;;;;;;1.53;1.10;;;19.80;37.90;;;;;;5002580;28;20338;-58
2021/12/09 06:59:01;;;;;;;2.07;1.40;;;19.80;38.00;;;;;;5002661;28;20236;-58
2021/12/09 07:01:27;;;;;;;1.20;1.10;;;19.80;38.00;;;;;;5001863;28;20475;-58
2021/12/09 07:03:53;;;;;;;3.03;1.20;;;19.70;38.00;;;;;;4997888;28;20216;-59
2021/12/09 07:06:19;;;;;;;1.23;1.13;;;19.70;38.00;;;;;;5007798;28;20262;-58
2021/12/09 07:08:48;;;;;;;1.23;1.10;;;19.70;38.00;;;;;;5001758;28;20942;-60
2021/12/09 07:11:16;;;;;;;1.30;1.20;;;19.70;38.00;;;;;;5003931;28;20450;-58
2021/12/09 07:13:44;;;;;;;1.47;1.20;;;19.70;37.90;;;;;;5005014;28;20780;-57
2021/12/09 07:16:10;;;;;;;1.33;1.23;;;19.70;38.00;;;;;;5002845;28;20450;-58
2021/12/09 07:18:36;;;;;;;1.87;1.23;;;19.70;38.00;;;;;;4998351;28;20847;-58
2021/12/09 07:21:04;;;;;;;1.50;1.33;;;19.70;38.10;;;;;;4995931;28;20236;-58
2021/12/09 07:23:29;;;;;;;1.80;1.20;;;19.70;38.00;;;;;;5004225;28;20477;-58
2021/12/09 07:25:55;;;;;;;2.30;1.13;;;19.70;38.00;;;;;;5002446;28;20541;-58
2021/12/09 07:28:21;;;;;;;1.27;1.10;;;19.70;38.00;;;;;;5004378;28;20251;-58
2021/12/09 07:30:46;;;;;;;2.73;1.30;;;19.70;38.10;;;;;;5005411;28;20580;-58
2021/12/09 07:33:12;;;;;;;1.73;1.20;;;19.70;38.00;;;;;;5001747;28;20270;-58
2021/12/09 07:35:39;;;;;;;1.17;1.03;;;19.80;38.00;;;;;;4999061;28;20221;-58
2021/12/09 07:38:04;;;;;;;3.27;1.40;;;19.70;38.00;;;;;;5002683;28;20220;-58
2021/12/09 07:40:31;;;;;;;2.20;1.20;;;19.70;38.00;;;;;;5004923;28;20996;-58
2021/12/09 07:42:57;;;;;;;1.80;1.30;;;19.70;38.70;;;;;;5005923;28;20301;-58
2021/12/09 07:45:23;;;;;;;1.40;1.30;;;19.80;38.00;;;;;;5007884;28;20461;-57
2021/12/09 07:47:50;;;;;;;1.73;1.43;;;19.70;38.00;;;;;;5004124;28;20472;-58
2021/12/09 07:50:19;;;;;;;2.77;1.30;;;19.70;38.00;;;;;;4999419;28;20450;-59
2021/12/09 07:52:49;;;;;;;1.30;1.20;;;19.70;38.70;;;;;;5001170;28;20957;-59
2021/12/09 07:55:16;;;;;;;1.40;1.30;;;19.70;38.00;;;;;;5003628;28;20567;-58
2021/12/09 07:57:42;;;;;;;1.30;1.20;;;19.70;38.70;;;;;;5003553;28;20417;-58
2021/12/09 08:00:12;;;;;;;1.37;1.27;;;19.70;38.00;;;;;;5000705;28;20476;-58
2021/12/09 08:02:42;;;;;;;2.50;1.30;;;19.70;38.00;;;;;;4996104;28;20469;-58
2021/12/09 08:05:09;;;;;;;2.80;1.07;;;19.70;38.00;;;;;;5004319;28;20468;-57
2021/12/09 08:07:35;;;;;;;1.60;1.30;;;19.70;38.00;;;;;;5002516;28;20473;-58
2021/12/09 08:10:01;;;;;;;1.60;1.50;;;19.70;38.00;;;;;;4999818;28;20445;-57
2021/12/09 08:12:27;;;;;;;1.30;1.20;;;19.70;38.00;;;;;;5004103;28;20223;-58
2021/12/09 08:14:52;;;;;;;1.40;1.10;;;19.70;38.00;;;;;;5006281;28;20457;-57
2021/12/09 08:20:07;;;;;;;1.57;1.30;;;19.70;37.90;;;;;;5003583;28;20238;-57
2021/12/09 08:22:33;;;;;;;1.93;1.37;;;19.70;37.90;;;;;;4999800;28;20486;-57
2021/12/09 08:24:59;;;;;;;1.60;1.20;;;19.70;37.90;;;;;;4998451;28;20451;-57
2021/12/09 08:27:26;;;;;;;1.50;1.33;;;19.70;37.90;;;;;;5002884;28;20452;-57
2021/12/09 08:29:51;;;;;;;1.50;1.17;;;19.70;37.90;;;;;;5001607;28;20228;-57
2021/12/09 08:32:17;;;;;;;1.90;1.20;;;19.70;38.00;;;;;;5001415;28;20488;-58
2021/12/09 08:34:43;;;;;;;1.47;1.30;;;19.70;37.90;;;;;;5002964;28;20224;-58
2021/12/09 08:37:09;;;;;;;1.43;1.20;;;19.70;37.80;;;;;;4999687;28;20223;-58
2021/12/09 08:39:35;;;;;;;2.33;1.23;;;19.70;37.90;;;;;;5000317;28;20220;-58
2021/12/09 08:42:00;;;;;;;1.40;1.20;;;19.70;38.00;;;;;;5004402;28;20509;-59
2021/12/09 08:44:26;;;;;;;1.70;1.10;;;19.70;37.90;;;;;;5004147;28;20231;-58
2021/12/09 08:46:52;;;;;;;3.03;1.20;;;19.70;37.90;;;;;;4986002;28;20231;-58
2021/12/09 08:49:17;;;;;;;5.43;1.63;;;19.70;37.90;;;;;;5002230;28;20224;-58
2021/12/09 08:51:44;;;;;;;2.50;1.67;;;19.70;37.90;;;;;;5004702;28;20280;-58
2021/12/09 08:54:10;;;;;;;1.80;1.20;;;19.70;37.80;;;;;;5000122;28;20304;-58
2021/12/09 08:56:37;;;;;;;1.40;1.23;;;19.70;37.80;;;;;;4999550;28;20453;-58
2021/12/09 08:59:05;;;;;;;1.37;1.20;;;19.70;37.90;;;;;;5000424;28;20462;-58
2021/12/09 09:01:32;;;;;;;1.50;1.40;;;19.70;37.80;;;;;;5004542;28;20565;-58
2021/12/09 09:03:58;;;;;;;1.17;1.07;;;19.80;37.90;;;;;;5000730;28;20454;-58
2021/12/09 09:06:23;;;;;;;2.20;1.30;;;19.70;37.80;;;;;;4998051;28;20781;-58
2021/12/09 09:08:56;;;;;;;1.40;1.20;;;19.70;37.80;;;;;;4998352;28;20224;-58
2021/12/09 09:11:22;;;;;;;1.83;1.10;;;19.70;37.80;;;;;;4997678;28;20275;-58
2021/12/09 09:13:47;;;;;;;1.50;1.07;;;19.70;37.80;;;;;;5004227;28;21080;-58
2021/12/09 09:16:13;;;;;;;2.83;1.30;;;19.70;37.70;;;;;;5002705;28;20228;-58
2021/12/09 09:18:39;;;;;;;1.30;1.20;;;19.70;37.70;;;;;;5000571;28;20307;-58
2021/12/09 09:21:05;;;;;;;1.90;1.50;;;19.70;37.70;;;;;;5000523;28;20286;-58
2021/12/09 09:23:31;;;;;;;1.63;1.30;;;19.70;37.70;;;;;;5002071;28;20983;-58
2021/12/09 09:25:57;;;;;;;1.30;1.20;;;19.70;37.70;;;;;;5000358;28;20450;-58
2021/12/09 09:28:23;;;;;;;1.40;1.00;;;19.70;37.70;;;;;;4999345;28;20299;-58
2021/12/09 09:30:53;;;;;;;1.93;1.00;;;19.70;37.70;;;;;;4999124;28;20227;-58
2021/12/09 09:33:24;;;;;;;1.40;1.10;;;19.70;37.70;;;;;;4980697;28;20629;-58
2021/12/09 09:35:50;;;;;;;1.10;1.00;;;19.70;37.70;;;;;;4999091;28;20449;-58
2021/12/09 09:38:17;;;;;;;1.10;1.00;;;19.70;37.80;;;;;;5001598;28;20472;-58
2021/12/09 09:40:49;;;;;;;1.50;1.20;;;19.70;37.70;;;;;;4998884;28;20454;-57
2021/12/09 09:44:12;;;;;;;1.30;1.20;;;19.70;37.70;;;;;;5002708;28;20441;-57
2021/12/09 09:46:04;;;;;;;1.10;1.00;;;19.70;37.70;;;;;;4987294;28;20458;-58
2021/12/09 09:48:30;;;;;;;1.87;1.00;;;19.70;37.70;;;;;;5000240;28;20460;-58
2021/12/09 09:50:56;;;;;;;1.30;1.20;;;19.70;37.70;;;;;;5001483;28;20560;-58
2021/12/09 09:53:22;;;;;;;1.83;1.10;;;19.70;37.70;;;;;;4996832;28;20216;-58
2021/12/09 09:55:48;;;;;;;1.30;1.20;;;19.70;37.70;;;;;;4999390;28;20421;-58
2021/12/09 09:58:15;;;;;;;2.00;1.17;;;19.70;37.70;;;;;;5001923;28;20223;-58
2021/12/09 10:00:42;;;;;;;5.27;1.20;;;19.70;37.70;;;;;;4996399;28;20235;-57
2021/12/09 10:03:16;;;;;;;1.10;0.93;;;19.80;37.80;;;;;;4996484;28;20450;-58
2021/12/09 10:05:46;;;;;;;1.10;1.00;;;19.70;37.70;;;;;;5001419;28;20450;-57
2021/12/09 10:08:13;;;;;;;1.20;1.10;;;19.70;37.70;;;;;;5000466;28;20471;-57
2021/12/09 10:10:41;;;;;;;1.60;1.20;;;19.70;37.70;;;;;;4996367;28;20438;-57
2021/12/09 10:13:09;;;;;;;1.20;1.10;;;19.70;37.60;;;;;;5002201;28;20444;-57
2021/12/09 10:15:42;;;;;;;1.40;1.30;;;19.70;37.70;;;;;;4994126;28;20496;-57
2021/12/09 10:18:09;;;;;;;1.23;1.00;;;19.70;37.60;;;;;;4996775;28;20445;-57
2021/12/09 10:20:51;;;;;;;1.40;1.30;;;19.70;37.60;;;;;;4986596;28;20436;-57
2021/12/09 10:23:42;;;;;;;1.30;1.20;;;19.70;37.60;;;;;;5000828;28;21047;-58
2021/12/09 10:26:15;;;;;;;1.37;1.17;;;19.70;37.60;;;;;;5002308;28;20440;-57
2021/12/09 10:28:48;;;;;;;1.60;1.10;;;19.70;37.60;;;;;;4999680;28;20416;-57
2021/12/09 10:31:18;;;;;;;1.20;1.10;;;19.70;37.70;;;;;;4997189;28;20496;-57
2021/12/09 10:34:13;;;;;;;1.27;1.10;;;19.70;37.70;;;;;;4995954;28;20417;-57
2021/12/09 10:37:15;;;;;;;1.20;1.10;;;19.70;37.70;;;;;;5001636;28;20794;-57
2021/12/09 10:39:56;;;;;;;1.10;1.00;;;19.70;37.70;;;;;;4992398;28;20435;-57
2021/12/09 10:42:53;;;;;;;2.20;1.10;;;19.70;37.70;;;;;;4995167;28;20466;-57
2021/12/09 10:45:25;;;;;;;1.60;1.30;;;19.70;37.70;;;;;;4989152;28;20483;-57
2021/12/09 10:48:05;;;;;;;1.10;1.00;;;19.70;37.70;;;;;;4996786;28;20572;-57
2021/12/09 10:50:43;;;;;;;1.77;1.67;;;19.60;37.70;;;;;;4983256;28;21254;-57
2021/12/09 10:53:33;;;;;;;1.20;1.10;;;19.60;37.70;;;;;;4996557;28;20424;-57
2021/12/09 10:56:04;;;;;;;1.10;1.00;;;19.60;37.70;;;;;;5002068;28;20462;-57
2021/12/09 10:58:42;;;;;;;1.10;1.00;;;19.60;37.70;;;;;;4999019;28;20581;-57
2021/12/09 11:01:10;;;;;;;1.43;1.13;;;19.60;37.70;;;;;;5001578;28;20453;-58
2021/12/09 11:03:45;;;;;;;1.10;1.00;;;19.60;37.70;;;;;;4997823;28;20457;-57
2021/12/09 11:06:18;;;;;;;1.87;1.20;;;19.60;37.80;;;;;;5001835;28;20465;-57
2021/12/09 11:08:49;;;;;;;1.30;1.20;;;19.60;37.80;;;;;;4996817;28;20499;-57
2021/12/09 11:11:24;;;;;;;0.97;0.90;;;19.60;37.80;;;;;;4999934;28;20441;-59
2021/12/09 11:13:57;;;;;;;2.00;1.30;;;19.60;37.70;;;;;;4997726;28;20432;-57
2021/12/09 11:16:32;;;;;;;1.13;1.03;;;19.60;37.80;;;;;;5000099;28;20454;-57
2021/12/09 11:19:19;;;;;;;1.10;1.00;;;19.60;37.80;;;;;;4999139;28;20430;-57
2021/12/09 11:21:54;;;;;;;1.23;1.13;;;19.60;37.80;;;;;;4997459;28;20453;-59
2021/12/09 11:24:22;;;;;;;1.20;1.10;;;19.60;37.80;;;;;;4996596;28;20452;-56
2021/12/09 11:29:30;;;;;;;1.30;1.20;;;19.60;37.80;;;;;;4997501;28;20449;-57
2021/12/09 11:34:56;;;;;;;1.27;1.17;;;19.60;37.80;;;;;;4998764;28;20881;-57
2021/12/09 11:39:54;;;;;;;1.40;1.30;;;19.60;37.80;;;;;;4996638;28;20511;-57
2021/12/09 11:42:38;;;;;;;1.00;0.90;;;19.60;37.80;;;;;;4998677;28;20478;-57
2021/12/09 11:45:09;;;;;;;1.30;1.20;;;19.60;37.80;;;;;;5001529;28;20461;-58
2021/12/09 11:47:43;;;;;;;1.17;1.07;;;19.60;37.80;;;;;;5003619;28;20437;-57
2021/12/09 11:50:14;;;;;;;1.10;1.00;;;19.60;37.80;;;;;;5002673;28;20435;-57
2021/12/09 11:52:43;;;;;;;1.07;0.97;;;19.60;37.80;;;;;;5000220;28;20516;-57
2021/12/09 11:55:12;;;;;;;1.20;1.10;;;19.60;37.70;;;;;;5000248;28;20443;-57
2021/12/09 11:58:01;;;;;;;1.30;1.20;;;19.60;37.80;;;;;;5004783;28;20451;-57
2021/12/09 12:12:24;;;;;;;1.10;1.00;;;19.60;37.80;;;;;;5000971;28;20908;-57
2021/12/09 12:14:55;;;;;;;1.90;1.10;;;19.60;37.80;;;;;;5001354;28;20454;-57
2021/12/09 12:20:00;;;;;;;1.00;0.90;;;19.60;37.80;;;;;;5002842;28;20420;-57
2021/12/09 12:34:34;;;;;;;1.37;1.17;;;19.60;37.80;;;;;;5002569;28;20438;-57
2021/12/09 12:37:11;;;;;;;1.10;1.00;;;19.60;37.80;;;;;;4998931;28;21142;-57
2021/12/09 12:42:26;;;;;;;1.10;1.00;;;19.60;37.80;;;;;;5003585;28;20485;-57
2021/12/09 12:45:18;;;;;;;0.90;0.90;;;19.60;37.70;;;;;;4998352;28;20803;-57
2021/12/09 12:47:53;;;;;;;1.10;1.00;;;19.60;37.70;;;;;;5005432;28;20457;-57
2021/12/09 12:50:21;;;;;;;1.20;1.10;;;19.60;37.70;;;;;;5003325;28;20443;-58
2021/12/09 12:52:47;;;;;;;1.00;0.90;;;19.60;37.80;;;;;;5001991;28;20968;-57
2021/12/09 12:55:16;;;;;;;1.00;0.90;;;19.60;37.80;;;;;;4996911;28;20450;-57
2021/12/09 12:57:50;;;;;;;1.10;1.00;;;19.60;37.70;;;;;;5003839;28;20478;-57
2021/12/09 13:00:28;;;;;;;1.00;0.90;;;19.60;37.80;;;;;;4997846;28;20423;-57
2021/12/09 13:05:46;;;;;;;1.57;1.00;;;19.60;37.80;;;;;;5000579;28;20477;-57
2021/12/09 13:13:51;;;;;;;1.17;1.00;;;19.60;37.80;;;;;;4995749;28;20528;-58
2021/12/09 13:16:34;;;;;;;1.00;0.90;;;19.60;37.80;;;;;;4997944;28;20781;-57
2021/12/09 13:22:00;;;;;;;4.43;0.80;;;19.60;37.80;;;;;;4996417;28;20489;-57
2021/12/09 13:24:51;;;;;;;1.17;0.90;;;19.60;37.90;;;;;;5006150;28;20507;-57
2021/12/09 13:27:32;;;;;;;1.00;0.77;;;19.60;37.80;;;;;;4998842;28;20441;-57
2021/12/09 13:36:19;;;;;;;1.00;0.90;;;19.60;37.80;;;;;;4999361;28;20519;-57
2021/12/09 13:49:04;;;;;;;1.10;1.00;;;19.60;37.80;;;;;;5002240;28;20457;-57
2021/12/09 13:51:56;;;;;;;1.00;0.90;;;19.50;37.80;;;;;;4997195;28;21021;-57
2021/12/09 13:56:46;;;;;;;1.00;0.90;;;19.60;37.90;;;;;;5003836;28;20468;-59
2021/12/09 13:59:20;;;;;;;1.03;0.93;;;19.60;37.90;;;;;;4999610;28;20455;-57
2021/12/09 14:01:47;;;;;;;0.80;0.80;;;19.50;37.80;;;;;;5001701;28;20458;-59
2021/12/09 14:04:17;;;;;;;0.80;0.80;;;19.60;38.00;;;;;;5001568;28;20457;-57
2021/12/09 14:07:23;;;;;;;0.80;0.77;;;19.50;37.80;;;;;;4996524;28;20448;-57
2021/12/09 14:09:45;;;;;;;1.17;0.83;;;19.60;37.90;;;;;;4997665;28;20483;-56
2021/12/09 14:12:10;;;;;;;1.37;0.93;;;19.50;37.80;;;;;;5001682;28;20440;-56